LQTZ

Details ICAO LQTZ
Name TUZLA
Region Bosnia and Herzegovinia
Timezone Europe/Sarajevo (UTC+2.0)
Plans Departing 55
Arriving 32
Stats Elevation 784 ft / 239 m (AMSL)
Location 44.458666° 18.724833°
Runways 1
Magnetic Variation 4.398° E
Sunrise 2018-05-21 03:13:18 UTC / 2018-05-21 05:13:18 Local
Sunset 2018-05-21 18:12:56 UTC / 2018-05-21 20:12:56 Local
Advertisement - Login to hide

Runways

ID Width Length Bearing (true) Bearing (mag) Surface Threshold Offset Overrun Length
09 148 ft / 45 m 8,119 ft / 2,475 m 96.01° 91.61° Asphalt 0 ft / 0 m 99 ft / 30 m
27 148 ft / 45 m 8,119 ft / 2,475 m 276.03° 271.63° Asphalt 0 ft / 0 m 110 ft / 34 m

Approach Navaids

Runway Type Ident Frequency Range Bearing (true) Bearing (mag) Slope Elevation
09 Localiser TLA 110.10 MHz 25 nm / 46 km 96.00° 91.60° - 788 ft / 240 m (AMSL)
09 Glidescope TLA 110.10 MHz 25 nm / 46 km 96.00° 91.60° 3.00° 251 ft / 77 m (AMSL)
09 DME TLA 110.10 MHz 25 nm / 46 km - - - 251 ft / 77 m (AMSL)

Map

Weather


0- 5 10 15 20 25 30 35+ Temperature / ° C

Clouds and Precipitation
Forecast for 2018-05-21 12:00 UTC. Updated 39 minutes ago

Ground ~20,000 ft ~40,000 ft Winds

METAR

LQTZ 211130Z 09006KT 060V130 9999 SCT040 24/11 Q1015

TAF

Not found

Frequencies

Tower 130.85 MHz TWR
Approach 125.80 MHz APP/DEP
Warning: Do not use this data for real-world aviation or navigation. No guarantee of current accuracy is given.